Time;durP1;ratioP1;P1;durP2;ratioP2;P2;SDS_P1;SDS_P2;PMS_P1;PMS_P2;Temp;Humidity;BMP_temperature;BMP_pressure;BME280_temperature;BME280_humidity;BME280_pressure;Samples;Min_cycle;Max_cycle;Signal;HPM_P1;HPM_P2
2021/12/03 00:02:10;;;;;;;13.18;3.42;;;;;;;10.64;100.00;150327.33;1770034;79;21016;-60
2021/12/03 00:04:37;;;;;;;14.40;3.62;;;;;;;10.66;100.00;150332.52;1770114;80;20995;-60
2021/12/03 00:07:04;;;;;;;16.45;4.50;;;;;;;10.67;100.00;150336.42;1773020;80;21588;-61
2021/12/03 00:09:35;;;;;;;15.98;4.00;;;;;;;10.72;100.00;150348.06;1780185;79;21003;-61
2021/12/03 00:11:59;;;;;;;8.73;3.55;;;;;;;10.80;100.00;150368.87;1726381;81;21070;-62
2021/12/03 00:14:26;;;;;;;12.65;3.70;;;;;;;10.86;100.00;150384.44;1772645;79;20981;-62
2021/12/03 00:16:52;;;;;;;11.08;3.70;;;;;;;10.89;100.00;150392.22;1782793;80;21017;-62
2021/12/03 00:19:19;;;;;;;18.10;4.03;;;;;;;10.89;100.00;150390.94;1779946;79;22212;-62
2021/12/03 00:21:46;;;;;;;14.38;3.72;;;;;;;10.88;100.00;150389.63;1793295;79;21312;-62
2021/12/03 00:24:12;;;;;;;17.15;3.80;;;;;;;10.88;100.00;150389.63;1779519;79;21081;-62
2021/12/03 00:26:39;;;;;;;15.10;3.22;;;;;;;10.91;100.00;150396.13;1781541;79;21056;-62
2021/12/03 00:29:06;;;;;;;15.08;3.67;;;;;;;10.94;100.00;150402.58;1785971;79;21095;-62
2021/12/03 00:31:34;;;;;;;13.22;3.65;;;;;;;10.93;100.00;150400.00;1781299;80;21142;-62
2021/12/03 00:34:01;;;;;;;15.03;4.10;;;;;;;10.95;100.00;150405.22;1780740;79;21192;-62
2021/12/03 00:36:28;;;;;;;23.20;4.20;;;;;;;11.00;100.00;150419.47;1782715;79;21008;-61
2021/12/03 00:38:58;;;;;;;10.70;4.47;;;;;;;11.06;100.00;150433.77;1786247;78;21358;-61
2021/12/03 00:41:24;;;;;;;16.82;4.50;;;;;;;11.09;100.00;150441.55;1780896;79;21024;-61
2021/12/03 00:43:53;;;;;;;22.45;5.15;;;;;;;11.14;100.00;150453.23;1782894;79;21159;-62
2021/12/03 00:46:21;;;;;;;13.05;3.72;;;;;;;11.17;100.00;150462.34;1784755;79;21562;-62
2021/12/03 00:48:50;;;;;;;24.98;4.47;;;;;;;11.25;100.00;150480.50;1779200;80;21443;-61
2021/12/03 00:51:18;;;;;;;21.87;4.45;;;;;;;11.27;100.00;150487.02;1778307;79;21065;-61
2021/12/03 00:53:45;;;;;;;16.70;4.67;;;;;;;11.30;100.00;150493.47;1787695;79;21070;-61
2021/12/03 00:56:13;;;;;;;23.55;5.62;;;;;;;11.35;100.00;150506.44;1786897;78;21501;-61
2021/12/03 00:58:39;;;;;;;16.27;4.30;;;;;;;11.42;100.00;150524.66;1782758;79;21021;-60
2021/12/03 01:01:07;;;;;;;17.00;4.33;;;;;;;11.50;100.00;150542.81;1785878;79;21075;-61
2021/12/03 01:03:34;;;;;;;15.95;4.37;;;;;;;11.56;100.00;150558.39;1783342;79;21326;-61
2021/12/03 01:06:01;;;;;;;25.17;5.35;;;;;;;11.62;100.00;150574.02;1780377;79;21036;-61
2021/12/03 01:08:31;;;;;;;13.83;4.72;;;;;;;11.67;100.00;150586.98;1747307;80;21144;-61
2021/12/03 01:10:58;;;;;;;18.57;4.37;;;;;;;11.74;100.00;150605.16;1783542;79;21103;-61
2021/12/03 01:13:26;;;;;;;20.85;4.25;;;;;;;11.81;100.00;150620.72;1785813;79;20995;-61
2021/12/03 01:15:52;;;;;;;19.67;4.45;;;;;;;11.89;100.00;150641.53;1783148;79;21044;-60
2021/12/03 01:18:19;;;;;;;17.70;4.47;;;;;;;11.94;100.00;150653.25;1788042;79;21233;-60
2021/12/03 01:20:47;;;;;;;18.27;4.10;;;;;;;11.94;100.00;150654.52;1792324;79;21623;-61
2021/12/03 01:23:14;;;;;;;17.20;3.77;;;;;;;11.91;100.00;150646.73;1779109;79;21688;-60
2021/12/03 01:25:41;;;;;;;18.17;4.15;;;;;;;11.87;100.00;150637.63;1778355;79;21426;-60
2021/12/03 01:28:08;;;;;;;20.20;3.83;;;;;;;11.87;100.00;150636.34;1775311;79;21045;-61
2021/12/03 01:30:35;;;;;;;13.32;4.03;;;;;;;11.83;100.00;150627.23;1783479;79;21029;-60
2021/12/03 01:33:01;;;;;;;18.50;4.40;;;;;;;11.81;100.00;150620.72;1774478;79;21963;-61
2021/12/03 01:35:28;;;;;;;16.75;4.05;;;;;;;11.74;100.00;150603.87;1772823;79;21069;-61
2021/12/03 01:37:55;;;;;;;14.60;4.10;;;;;;;11.71;100.00;150597.38;1771119;80;21090;-61
2021/12/03 01:40:24;;;;;;;16.85;3.72;;;;;;;11.69;100.00;150592.17;1775861;79;21370;-61
2021/12/03 01:42:51;;;;;;;19.92;4.22;;;;;;;11.64;100.00;150579.20;1771663;80;21010;-60
2021/12/03 01:45:25;;;;;;;9.90;3.33;;;;;;;11.60;100.00;150568.78;1781378;79;22063;-61
2021/12/03 01:47:52;;;;;;;18.85;4.25;;;;;;;11.59;100.00;150567.50;1772322;79;21030;-60
2021/12/03 01:50:30;;;;;;;14.03;3.90;;;;;;;11.59;100.00;150566.17;1779140;79;21454;-60
2021/12/03 01:52:56;;;;;;;12.07;3.77;;;;;;;11.63;100.00;150576.61;1775526;79;21017;-60
2021/12/03 01:55:23;;;;;;;17.67;3.87;;;;;;;11.64;100.00;150579.20;1779990;79;21084;-60
2021/12/03 01:57:49;;;;;;;18.37;4.30;;;;;;;11.64;100.00;150577.88;1770586;80;21537;-60
2021/12/03 02:00:27;;;;;;;13.60;3.65;;;;;;;11.60;100.00;150570.09;1776625;79;21075;-60
2021/12/03 02:02:54;;;;;;;12.55;3.30;;;;;;;11.54;100.00;150554.53;1773563;79;21108;-60
2021/12/03 02:05:21;;;;;;;17.35;3.62;;;;;;;11.46;100.00;150535.03;1771917;79;21056;-58
2021/12/03 02:07:48;;;;;;;19.75;3.50;;;;;;;11.36;100.00;150509.05;1774110;79;21053;-58
2021/12/03 02:10:16;;;;;;;20.30;3.72;;;;;;;11.29;100.00;150492.20;1777348;79;21132;-60
2021/12/03 02:12:42;;;;;;;24.45;4.75;;;;;;;11.31;100.00;150496.06;1771961;80;21059;-58
2021/12/03 02:15:09;;;;;;;20.02;3.65;;;;;;;11.28;100.00;150489.61;1775490;79;21058;-58
2021/12/03 02:17:38;;;;;;;12.40;3.12;;;;;;;11.23;100.00;150475.31;1772362;80;20960;-58
2021/12/03 02:22:49;;;;;;;13.15;3.45;;;;;;;11.13;100.00;150451.92;1828487;75;28309;-57
2021/12/03 02:25:21;;;;;;;15.20;2.95;;;;;;;11.03;100.00;150425.98;1809808;79;21452;-58
2021/12/03 02:27:52;;;;;;;14.93;2.98;;;;;;;11.00;100.00;150418.20;1811239;77;21096;-58
2021/12/03 02:30:19;;;;;;;21.02;5.20;;;;;;;10.95;100.00;150405.22;1807250;77;20964;-59
2021/12/03 02:32:46;;;;;;;15.63;3.10;;;;;;;10.94;100.00;150402.58;1802715;79;20940;-58
2021/12/03 02:35:13;;;;;;;25.65;3.60;;;;;;;10.94;100.00;150403.91;1808395;79;20997;-58
2021/12/03 02:37:40;;;;;;;13.48;3.10;;;;;;;10.93;100.00;150400.00;1809721;77;20980;-59
2021/12/03 02:40:09;;;;;;;16.75;3.30;;;;;;;10.91;100.00;150394.80;1763221;80;21869;-59
2021/12/03 02:42:35;;;;;;;13.05;3.77;;;;;;;10.93;100.00;150400.00;1808473;79;20940;-58
2021/12/03 02:45:05;;;;;;;15.78;3.40;;;;;;;10.97;100.00;150411.69;1805347;78;21453;-59
2021/12/03 02:47:32;;;;;;;13.83;3.40;;;;;;;10.96;100.00;150407.81;1775099;79;21042;-59
2021/12/03 02:49:59;;;;;;;12.30;3.27;;;;;;;10.95;100.00;150405.22;1805443;79;21051;-59
2021/12/03 02:52:25;;;;;;;20.05;3.45;;;;;;;10.93;100.00;150400.00;1777475;79;21517;-59
2021/12/03 02:54:52;;;;;;;18.32;3.95;;;;;;;10.88;100.00;150388.34;1766137;80;20990;-59
2021/12/03 02:57:19;;;;;;;14.30;3.70;;;;;;;10.85;100.00;150380.56;1740589;80;21500;-58
2021/12/03 02:59:46;;;;;;;16.27;4.17;;;;;;;10.83;100.00;150376.66;1745673;81;20930;-59
2021/12/03 03:02:12;;;;;;;21.45;4.80;;;;;;;10.81;100.00;150371.47;1811269;77;21100;-59
2021/12/03 03:04:39;;;;;;;24.30;4.00;;;;;;;10.80;100.00;150368.87;1807694;79;21460;-58
2021/12/03 03:07:05;;;;;;;19.37;4.12;;;;;;;10.81;100.00;150371.47;1805815;79;21017;-57
2021/12/03 03:09:32;;;;;;;16.57;4.05;;;;;;;10.83;100.00;150376.66;1814142;79;21033;-57
2021/12/03 03:11:59;;;;;;;19.27;3.83;;;;;;;10.86;100.00;150384.44;1808197;79;21415;-57
2021/12/03 03:14:26;;;;;;;14.58;3.58;;;;;;;10.85;100.00;150381.84;1812081;78;21021;-57
2021/12/03 03:16:53;;;;;;;12.95;3.62;;;;;;;10.87;100.00;150385.75;1803033;77;21503;-57
2021/12/03 03:19:23;;;;;;;21.45;4.15;;;;;;;10.83;100.00;150376.66;1811133;77;20965;-58
2021/12/03 03:21:50;;;;;;;16.77;4.25;;;;;;;10.81;100.00;150371.47;1800935;78;21067;-58
2021/12/03 03:24:17;;;;;;;21.33;4.08;;;;;;;10.80;100.00;150368.87;1790566;78;20959;-58
2021/12/03 03:26:45;;;;;;;15.20;3.70;;;;;;;10.79;100.00;150366.28;1784928;79;21073;-58
2021/12/03 03:29:16;;;;;;;14.20;3.85;;;;;;;10.82;100.00;150372.73;1787446;78;22398;-58
2021/12/03 03:31:44;;;;;;;19.62;3.80;;;;;;;10.80;100.00;150368.87;1787522;79;21008;-58
2021/12/03 03:34:10;;;;;;;22.25;4.30;;;;;;;10.84;100.00;150379.23;1736481;81;21560;-58
2021/12/03 03:36:39;;;;;;;18.05;5.00;;;;;;;10.86;100.00;150384.44;1722024;81;21480;-58
2021/12/03 03:39:07;;;;;;;17.95;4.60;;;;;;;10.89;100.00;150392.22;1747961;81;21419;-58
2021/12/03 03:41:34;;;;;;;25.32;4.75;;;;;;;10.92;100.00;150397.41;1724607;82;21479;-58
2021/12/03 03:44:01;;;;;;;15.95;3.92;;;;;;;10.95;100.00;150405.22;1736659;81;21115;-58
2021/12/03 03:46:27;;;;;;;13.88;4.22;;;;;;;10.96;100.00;150409.09;1745402;80;21047;-58
2021/12/03 03:48:54;;;;;;;19.80;4.92;;;;;;;10.95;100.00;150406.50;1735304;81;20967;-59
2021/12/03 03:51:20;;;;;;;21.50;3.92;;;;;;;10.94;100.00;150402.58;1738333;81;21035;-58
2021/12/03 03:53:47;;;;;;;19.82;4.20;;;;;;;10.92;100.00;150397.41;1718680;81;21533;-58
2021/12/03 03:56:13;;;;;;;22.02;4.53;;;;;;;10.87;100.00;150385.75;1741549;81;21095;-57
2021/12/03 03:58:41;;;;;;;18.73;4.33;;;;;;;10.85;100.00;150381.84;1732128;82;21523;-57
2021/12/03 04:01:09;;;;;;;17.90;4.47;;;;;;;10.85;100.00;150381.84;1738686;81;21446;-58
2021/12/03 04:03:37;;;;;;;14.05;4.15;;;;;;;10.88;100.00;150389.63;1745093;81;21118;-57
2021/12/03 04:06:03;;;;;;;13.50;4.10;;;;;;;10.89;100.00;150390.94;1726579;82;21464;-58
2021/12/03 04:08:30;;;;;;;18.48;4.58;;;;;;;10.88;100.00;150389.63;1739296;81;21051;-58
2021/12/03 04:10:58;;;;;;;15.43;3.60;;;;;;;10.92;100.00;150397.41;1740001;82;21124;-58
2021/12/03 04:13:25;;;;;;;19.35;3.70;;;;;;;10.90;100.00;150393.53;1726508;82;21465;-58
2021/12/03 04:15:53;;;;;;;22.95;4.58;;;;;;;10.94;100.00;150402.58;1730565;82;21008;-58
2021/12/03 04:18:19;;;;;;;18.05;4.00;;;;;;;10.93;100.00;150401.31;1735679;81;21993;-58
2021/12/03 04:20:47;;;;;;;15.50;4.00;;;;;;;10.95;100.00;150406.50;1733635;81;21520;-58
2021/12/03 04:23:19;;;;;;;21.37;3.85;;;;;;;11.00;100.00;150418.20;1729348;82;21043;-58
2021/12/03 04:25:44;;;;;;;17.80;3.83;;;;;;;10.99;100.00;150416.87;1810038;77;21086;-58
2021/12/03 04:28:11;;;;;;;18.52;4.37;;;;;;;11.02;100.00;150423.37;1803513;79;21044;-59
2021/12/03 04:30:38;;;;;;;19.82;5.37;;;;;;;11.07;100.00;150435.08;1744896;81;21963;-59
2021/12/03 04:33:05;;;;;;;19.20;3.92;;;;;;;11.05;100.00;150431.16;1751961;81;21087;-58
2021/12/03 04:35:32;;;;;;;17.65;3.58;;;;;;;11.05;100.00;150431.16;1749737;81;21078;-58
2021/12/03 04:37:59;;;;;;;21.33;3.92;;;;;;;11.03;100.00;150425.98;1740340;80;21480;-58
2021/12/03 04:40:27;;;;;;;24.23;4.15;;;;;;;11.03;100.00;150425.98;1732615;82;21108;-58
2021/12/03 04:42:54;;;;;;;17.17;4.22;;;;;;;11.01;100.00;150422.06;1759504;81;21159;-58
2021/12/03 04:45:22;;;;;;;18.35;4.92;;;;;;;11.01;100.00;150420.78;1751799;81;21071;-58
2021/12/03 04:47:51;;;;;;;22.42;4.72;;;;;;;11.02;100.00;150423.37;1747771;81;21036;-59
2021/12/03 04:50:18;;;;;;;20.08;5.53;;;;;;;11.04;100.00;150428.58;1753348;79;21650;-59
2021/12/03 04:52:45;;;;;;;23.10;5.25;;;;;;;11.02;100.00;150423.37;1734077;80;21028;-59
2021/12/03 04:55:12;;;;;;;18.15;4.20;;;;;;;10.98;100.00;150413.00;1732763;82;21648;-59
2021/12/03 04:57:38;;;;;;;18.25;4.55;;;;;;;11.01;100.00;150420.78;1759159;79;21013;-59
2021/12/03 05:00:11;;;;;;;20.80;4.58;;;;;;;11.01;100.00;150422.06;1732964;82;21008;-59
2021/12/03 05:02:38;;;;;;;23.75;4.45;;;;;;;11.01;100.00;150420.78;1726770;80;21001;-58
2021/12/03 05:05:06;;;;;;;13.68;3.67;;;;;;;11.00;100.00;150418.20;1802349;78;21378;-58
2021/12/03 05:10:08;;;;;;;20.25;4.25;;;;;;;11.00;100.00;150418.20;1811452;78;21013;-58
2021/12/03 05:12:35;;;;;;;15.80;3.52;;;;;;;10.97;100.00;150410.42;1808280;77;21036;-58
2021/12/03 05:15:03;;;;;;;11.30;3.60;;;;;;;10.95;100.00;150406.50;1769564;80;20972;-58
2021/12/03 05:17:30;;;;;;;10.32;3.55;;;;;;;10.95;100.00;150405.22;1746411;81;21496;-58
2021/12/03 05:19:56;;;;;;;16.48;4.05;;;;;;;10.98;100.00;150413.00;1743570;80;21131;-58
2021/12/03 05:22:23;;;;;;;17.37;4.22;;;;;;;10.99;100.00;150415.59;1736144;81;21132;-58
2021/12/03 05:24:50;;;;;;;18.87;4.08;;;;;;;11.04;100.00;150428.58;1731981;82;21036;-57
2021/12/03 05:27:19;;;;;;;14.93;3.80;;;;;;;11.04;100.00;150429.84;1762156;80;20937;-60
2021/12/03 05:29:48;;;;;;;18.27;3.87;;;;;;;11.09;100.00;150441.55;1726415;82;21363;-61
2021/12/03 05:32:16;;;;;;;10.43;3.37;;;;;;;11.18;100.00;150464.94;1759810;81;21458;-61
2021/12/03 05:34:42;;;;;;;15.18;4.03;;;;;;;11.22;100.00;150472.72;1759621;81;20950;-61
2021/12/03 05:37:09;;;;;;;17.10;4.22;;;;;;;11.22;100.00;150474.00;1757170;80;21062;-60
2021/12/03 05:39:36;;;;;;;16.23;3.72;;;;;;;11.16;100.00;150459.75;1752599;81;21033;-60
2021/12/03 05:42:04;;;;;;;18.73;4.30;;;;;;;11.13;100.00;150451.92;1749347;81;21040;-61
2021/12/03 05:44:31;;;;;;;12.37;3.47;;;;;;;11.10;100.00;150444.14;1768620;80;21925;-60
2021/12/03 05:46:59;;;;;;;18.73;4.10;;;;;;;11.11;100.00;150446.73;1771514;80;21013;-60
2021/12/03 05:49:26;;;;;;;20.43;4.03;;;;;;;11.13;100.00;150451.92;1751145;80;21231;-61
2021/12/03 05:51:53;;;;;;;16.93;3.72;;;;;;;11.11;100.00;150446.73;1747709;81;21434;-61
2021/12/03 05:54:20;;;;;;;16.37;3.40;;;;;;;11.11;100.00;150445.45;1751282;81;21056;-60
2021/12/03 05:56:48;;;;;;;11.05;3.08;;;;;;;11.15;100.00;150457.11;1759118;80;21142;-61
2021/12/03 05:59:14;;;;;;;11.83;3.27;;;;;;;11.14;100.00;150453.23;1749277;81;21024;-62
2021/12/03 06:01:41;;;;;;;9.53;2.75;;;;;;;11.15;100.00;150457.11;1750541;81;21043;-61
2021/12/03 06:04:08;;;;;;;8.73;2.60;;;;;;;11.18;100.00;150464.94;1758888;80;21039;-61
2021/12/03 06:06:34;;;;;;;15.65;3.37;;;;;;;11.21;100.00;150470.12;1735261;80;21530;-62
2021/12/03 06:09:04;;;;;;;10.18;2.77;;;;;;;11.22;100.00;150474.00;1737353;81;21127;-60
2021/12/03 06:11:31;;;;;;;15.35;2.92;;;;;;;11.27;100.00;150485.69;1738132;82;21045;-61
2021/12/03 06:13:58;;;;;;;11.18;2.35;;;;;;;11.28;100.00;150488.28;1737139;81;21411;-61
2021/12/03 06:16:24;;;;;;;13.05;2.80;;;;;;;11.26;100.00;150483.09;1759565;80;21043;-61
2021/12/03 06:18:52;;;;;;;12.13;2.90;;;;;;;11.27;100.00;150485.69;1752845;81;21054;-61
2021/12/03 06:21:19;;;;;;;9.60;2.30;;;;;;;11.31;100.00;150497.39;1756411;81;21116;-60
2021/12/03 06:23:46;;;;;;;12.43;2.95;;;;;;;11.31;100.00;150496.06;1753949;80;20950;-61
2021/12/03 06:26:12;;;;;;;14.23;2.95;;;;;;;11.35;100.00;150505.17;1752884;79;21040;-61
2021/12/03 06:28:40;;;;;;;12.30;2.72;;;;;;;11.39;100.00;150515.56;1746732;79;21056;-61
2021/12/03 06:31:07;;;;;;;12.82;2.62;;;;;;;11.45;99.99;150531.12;1754007;80;20984;-61
2021/12/03 06:33:35;;;;;;;13.90;3.40;;;;;;;11.45;99.55;150532.44;1752812;80;21966;-61
2021/12/03 06:36:03;;;;;;;16.25;2.62;;;;;;;11.48;99.32;150537.63;1750963;79;21656;-61
2021/12/03 06:38:31;;;;;;;12.93;2.22;;;;;;;11.52;98.81;150549.33;1736679;80;21491;-63
2021/12/03 06:40:57;;;;;;;10.05;2.42;;;;;;;11.53;98.49;150551.94;1803381;77;21467;-60
2021/12/03 06:43:24;;;;;;;10.48;2.80;;;;;;;11.58;98.31;150563.58;1809028;79;21124;-60
2021/12/03 06:45:51;;;;;;;10.70;2.60;;;;;;;11.66;97.76;150583.06;1806922;77;21447;-62
2021/12/03 06:48:17;;;;;;;12.58;2.47;;;;;;;11.69;96.90;150592.17;1808916;78;21108;-62
2021/12/03 06:50:45;;;;;;;11.03;2.45;;;;;;;11.72;96.47;150599.97;1770884;80;21049;-61
2021/12/03 06:53:15;;;;;;;9.58;2.22;;;;;;;11.78;96.39;150612.94;1803544;77;21452;-61
2021/12/03 06:55:47;;;;;;;10.53;2.70;;;;;;;11.85;95.59;150631.16;1806682;78;21499;-62
2021/12/03 06:58:16;;;;;;;11.12;2.62;;;;;;;11.84;95.11;150629.83;1763549;80;21656;-62
2021/12/03 07:00:45;;;;;;;9.65;2.33;;;;;;;11.86;94.95;150633.75;1800451;77;21031;-61
2021/12/03 07:03:11;;;;;;;14.05;3.22;;;;;;;11.89;94.87;150641.53;1745479;80;21060;-62
2021/12/03 07:05:38;;;;;;;11.95;2.90;;;;;;;11.93;94.67;150651.92;1801767;78;21104;-62
2021/12/03 07:08:05;;;;;;;8.93;2.70;;;;;;;11.94;94.59;150653.25;1800928;77;21114;-63
2021/12/03 07:10:33;;;;;;;8.90;2.35;;;;;;;11.95;94.54;150657.11;1796394;78;21108;-63
2021/12/03 07:13:00;;;;;;;9.60;2.40;;;;;;;12.02;94.56;150674.06;1806771;77;21094;-62
2021/12/03 07:15:27;;;;;;;8.13;2.83;;;;;;;12.10;94.31;150693.55;1769795;79;21057;-62
2021/12/03 07:17:54;;;;;;;13.40;3.37;;;;;;;12.14;93.88;150703.94;1805032;77;20988;-61
2021/12/03 07:20:23;;;;;;;17.02;2.77;;;;;;;12.15;93.62;150707.80;1805792;77;21126;-63
2021/12/03 07:22:50;;;;;;;8.95;2.22;;;;;;;12.19;93.43;150716.91;1808524;77;21594;-62
2021/12/03 07:25:17;;;;;;;6.78;2.10;;;;;;;12.22;92.96;150723.44;1803854;77;21056;-62
2021/12/03 07:27:44;;;;;;;11.35;2.90;;;;;;;12.24;92.64;150728.63;1811947;77;21477;-62
2021/12/03 07:30:13;;;;;;;9.50;2.72;;;;;;;12.24;92.22;150728.63;1808609;77;21070;-63
2021/12/03 07:32:40;;;;;;;12.30;2.83;;;;;;;12.26;92.15;150733.81;1785662;77;21025;-63
2021/12/03 07:35:08;;;;;;;14.53;3.05;;;;;;;12.28;91.70;150740.33;1802206;77;22113;-61
2021/12/03 07:37:35;;;;;;;11.28;2.55;;;;;;;12.33;91.37;150751.98;1805212;77;21329;-62
2021/12/03 07:40:04;;;;;;;13.32;2.72;;;;;;;12.37;91.08;150761.09;1812278;77;21056;-62
2021/12/03 07:42:32;;;;;;;11.53;2.52;;;;;;;12.40;91.12;150768.89;1812973;77;21052;-63
2021/12/03 07:45:00;;;;;;;10.65;2.72;;;;;;;12.47;90.89;150787.06;1800501;77;21026;-62
2021/12/03 07:47:27;;;;;;;7.25;2.52;;;;;;;12.50;90.74;150794.91;1809983;77;21627;-62
2021/12/03 07:49:54;;;;;;;16.62;2.65;;;;;;;12.57;90.79;150813.08;1810536;77;21669;-63
2021/12/03 07:52:21;;;;;;;12.30;2.60;;;;;;;12.63;90.31;150826.06;1814923;77;21059;-63
2021/12/03 07:54:48;;;;;;;8.85;2.22;;;;;;;12.67;90.18;150836.45;1810074;77;21033;-63
2021/12/03 07:57:15;;;;;;;14.47;3.50;;;;;;;12.72;89.79;150849.48;1802614;77;21408;-61
2021/12/03 07:59:42;;;;;;;8.13;2.30;;;;;;;12.72;89.67;150849.48;1806358;77;21125;-62
2021/12/03 08:02:09;;;;;;;11.95;2.67;;;;;;;12.75;89.72;150857.28;1808470;77;21071;-62
2021/12/03 08:04:36;;;;;;;11.75;2.90;;;;;;;12.82;89.54;150875.45;1807207;77;21042;-62
2021/12/03 08:07:04;;;;;;;8.35;3.10;;;;;;;12.88;89.23;150891.03;1805421;77;21068;-62
2021/12/03 08:09:32;;;;;;;9.98;3.40;;;;;;;12.93;88.43;150901.44;1739208;80;21569;-59
2021/12/03 08:11:58;;;;;;;9.43;2.77;;;;;;;12.94;88.32;150904.08;1743377;80;21086;-58
2021/12/03 08:14:25;;;;;;;11.73;2.90;;;;;;;12.99;88.24;150918.34;1756850;79;20909;-58
2021/12/03 08:16:52;;;;;;;15.28;2.62;;;;;;;13.06;87.94;150935.25;1755705;79;20999;-59
2021/12/03 08:19:19;;;;;;;17.15;2.83;;;;;;;13.10;87.48;150945.64;1751766;79;21097;-60
2021/12/03 08:21:45;;;;;;;10.58;2.47;;;;;;;13.15;87.44;150958.67;1750384;79;21039;-59
2021/12/03 08:24:12;;;;;;;7.65;2.67;;;;;;;13.25;87.43;150982.06;1733559;79;21154;-58
2021/12/03 08:26:38;;;;;;;11.88;2.33;;;;;;;13.34;87.14;151005.44;1722519;81;21094;-58
2021/12/03 08:29:06;;;;;;;13.93;3.22;;;;;;;13.43;87.00;151028.92;1721851;81;21047;-60
2021/12/03 08:31:33;;;;;;;8.85;2.67;;;;;;;13.53;86.93;151053.64;1723256;81;21079;-59
2021/12/03 08:34:00;;;;;;;8.90;2.30;;;;;;;13.61;86.50;151074.42;1736664;80;21123;-59
2021/12/03 08:36:27;;;;;;;11.73;2.60;;;;;;;13.67;86.06;151087.41;1704011;82;22222;-59
2021/12/03 08:38:54;;;;;;;9.90;2.60;;;;;;;13.72;85.97;151101.73;1709967;81;21038;-58
2021/12/03 08:41:21;;;;;;;7.53;2.37;;;;;;;13.79;85.05;151117.33;1704776;81;21584;-59
2021/12/03 08:43:48;;;;;;;11.90;2.60;;;;;;;13.83;84.47;151127.77;1702765;83;21566;-58
2021/12/03 08:46:24;;;;;;;9.13;2.95;;;;;;;13.82;83.81;151125.17;1708763;81;21055;-59
2021/12/03 08:48:47;;;;;;;10.03;2.98;;;;;;;13.80;83.73;151119.92;1707704;81;21752;-58
2021/12/03 08:56:29;;;;;;;8.90;2.67;;;;;;;13.98;82.68;151166.77;1707713;81;21672;-60
2021/12/03 08:59:00;;;;;;;6.15;2.35;;;;;;;14.04;82.05;151182.41;1712686;81;21392;-59
2021/12/03 09:01:34;;;;;;;9.30;3.25;;;;;;;14.09;80.96;151194.08;1714252;81;21717;-59
2021/12/03 09:04:03;;;;;;;8.73;2.62;;;;;;;14.13;80.19;151204.48;1684594;81;21056;-59
2021/12/03 09:06:30;;;;;;;8.88;2.45;;;;;;;14.11;80.05;151198.00;1709871;81;21242;-58
2021/12/03 09:08:58;;;;;;;8.15;2.58;;;;;;;14.11;79.93;151198.00;1711358;81;21078;-58
2021/12/03 09:11:26;;;;;;;7.53;2.80;;;;;;;14.12;79.54;151200.59;1710943;81;21143;-59
2021/12/03 09:13:55;;;;;;;15.25;3.00;;;;;;;14.13;79.40;151203.20;1709137;81;21589;-58
2021/12/03 09:16:22;;;;;;;8.00;2.62;;;;;;;14.14;79.45;151207.08;1707565;81;21513;-60
2021/12/03 09:18:51;;;;;;;8.88;3.35;;;;;;;14.20;79.29;151221.41;1708876;81;21075;-58
2021/12/03 09:21:33;;;;;;;10.18;2.90;;;;;;;14.25;79.20;151233.13;1706397;81;21090;-59
2021/12/03 09:26:27;;;;;;;10.35;2.75;;;;;;;14.20;79.19;151220.13;1722289;81;22949;-58
2021/12/03 09:29:06;;;;;;;7.33;2.90;;;;;;;14.22;79.08;151225.33;1727373;81;21085;-60
2021/12/03 09:31:30;;;;;;;9.83;2.65;;;;;;;14.17;79.27;151214.92;1723644;82;21502;-60
2021/12/03 09:33:58;;;;;;;9.30;2.80;;;;;;;14.12;79.37;151201.88;1720131;81;21175;-60
2021/12/03 09:36:25;;;;;;;8.23;2.75;;;;;;;14.08;79.56;151191.48;1737818;81;21108;-60
2021/12/03 09:38:52;;;;;;;12.58;3.10;;;;;;;14.07;79.81;151187.61;1760263;79;23946;-59
2021/12/03 09:41:20;;;;;;;13.38;3.47;;;;;;;14.08;79.79;151190.20;1737291;81;21085;-59
2021/12/03 09:43:52;;;;;;;14.23;2.80;;;;;;;14.09;79.80;151192.81;1756071;80;21169;-59
2021/12/03 09:46:26;;;;;;;14.70;2.92;;;;;;;14.13;79.93;151203.20;1755817;79;21970;-59
2021/12/03 09:51:47;;;;;;;11.18;3.62;;;;;;;14.21;80.06;151222.73;1748664;80;21171;-60
2021/12/03 09:54:24;;;;;;;15.68;3.77;;;;;;;14.26;79.88;151237.05;1746136;81;21061;-61
2021/12/03 09:56:51;;;;;;;11.40;3.42;;;;;;;14.30;79.63;151247.45;1738856;80;21183;-59
2021/12/03 10:12:42;;;;;;;10.98;2.70;;;;;;;14.36;79.57;151261.72;1738774;81;21053;-61
2021/12/03 10:15:24;;;;;;;11.57;3.22;;;;;;;14.44;79.42;151281.25;1717809;82;21086;-60
2021/12/03 10:18:10;;;;;;;12.93;2.80;;;;;;;14.52;79.28;151300.78;1744429;81;21941;-60
2021/12/03 10:20:49;;;;;;;14.28;3.52;;;;;;;14.58;79.12;151317.70;1724114;81;21062;-61
2021/12/03 10:33:54;;;;;;;6.92;2.80;;;;;;;14.67;77.41;151338.50;1694791;80;21339;-59
2021/12/03 10:41:26;;;;;;;8.83;3.30;;;;;;;14.48;75.08;151291.70;1743727;81;21056;-59
2021/12/03 10:44:02;;;;;;;10.95;3.10;;;;;;;14.42;75.15;151277.37;1757307;80;21968;-60
2021/12/03 10:52:49;;;;;;;18.00;3.70;;;;;;;14.22;75.15;151226.59;1722311;82;21060;-60
2021/12/03 11:00:56;;;;;;;11.55;3.20;;;;;;;14.14;75.88;151207.08;1744715;81;21075;-60
2021/12/03 11:03:11;;;;;;;7.17;2.55;;;;;;;14.15;75.96;151208.41;1727299;81;21578;-60
2021/12/03 11:19:04;;;;;;;11.73;3.45;;;;;;;14.06;75.56;151186.28;1639539;86;21120;-60
2021/12/03 11:21:46;;;;;;;9.55;3.10;;;;;;;14.00;75.68;151171.97;1613585;86;21166;-60
2021/12/03 11:35:15;;;;;;;11.78;2.90;;;;;;;13.85;76.32;151132.97;1736354;81;21509;-60
2021/12/03 13:13:11;;;;;;;14.58;3.58;;;;;;;13.27;79.19;150987.25;1752989;81;22427;-60
2021/12/03 13:24:11;;;;;;;14.43;3.75;;;;;;;12.99;80.39;150917.06;1677731;83;21069;-59
2021/12/03 13:29:25;;;;;;;12.80;3.37;;;;;;;12.96;80.70;150909.27;1732986;80;21110;-60
2021/12/03 13:57:04;;;;;;;9.58;3.90;;;;;;;12.88;79.42;150891.03;1745075;80;21031;-61
2021/12/03 14:21:40;;;;;;;10.75;3.90;;;;;;;12.35;83.27;150755.91;1734316;80;21644;-61
2021/12/03 14:42:09;;;;;;;14.53;4.67;;;;;;;11.85;86.58;150632.44;1717339;82;21584;-62
2021/12/03 14:52:12;;;;;;;14.03;5.22;;;;;;;11.76;87.12;150609.06;1718160;82;21392;-62
2021/12/03 14:54:49;;;;;;;;;;;;;;;11.74;87.05;150605.16;1733100;82;21063;-62
2021/12/03 14:57:36;;;;;;;16.30;5.62;;;;;;;11.72;87.19;150599.97;1690038;84;20209;-62
2021/12/03 15:01:21;;;;;;;14.47;6.40;;;;;;;11.74;87.38;150605.16;1712868;82;21821;-63
2021/12/03 15:08:39;;;;;;;23.80;6.45;;;;;;;11.66;87.05;150584.39;1711198;83;21155;-62
2021/12/03 15:11:47;;;;;;;28.98;9.83;;;;;;;11.61;87.09;150571.41;1714531;81;21055;-62
2021/12/03 15:22:02;;;;;;;15.98;7.97;;;;;;;11.37;87.36;150511.64;1718734;82;21134;-62
2021/12/03 15:30:09;;;;;;;33.45;11.73;;;;;;;11.31;86.43;150496.06;1729311;81;21528;-62
2021/12/03 15:32:39;;;;;;;34.58;13.53;;;;;;;11.29;85.81;150490.88;1726997;81;20940;-62
2021/12/03 15:40:23;;;;;;;33.83;15.53;;;;;;;11.32;83.54;150498.66;1731613;80;21951;-63
2021/12/03 15:56:35;;;;;;;23.38;10.68;;;;;;;11.12;81.38;150449.33;1738586;80;21130;-63
2021/12/03 16:04:21;;;;;;;14.15;6.12;;;;;;;11.11;80.01;150446.73;1732846;80;20286;-64
2021/12/03 16:10:03;;;;;;;;;;;;;;;11.05;79.69;150431.16;1740504;80;21103;-63
2021/12/03 16:12:38;;;;;;;14.25;7.42;;;;;;;11.10;79.40;150444.14;1739217;80;20542;-62
2021/12/03 16:47:09;;;;;;;21.90;11.35;;;;;;;10.70;78.58;150342.88;1741481;81;22337;-63
2021/12/03 16:49:58;;;;;;;23.85;11.30;;;;;;;10.66;78.53;150332.52;1699222;83;21075;-62
2021/12/03 16:52:03;;;;;;;24.75;12.25;;;;;;;10.58;75.93;150313.03;1713655;81;21037;-62
2021/12/03 16:54:40;;;;;;;24.43;13.22;;;;;;;10.32;74.25;150249.44;1708073;82;21536;-62
2021/12/03 16:57:03;;;;;;;28.60;13.45;;;;;;;10.11;73.54;150194.95;1712621;83;21031;-62
2021/12/03 16:59:31;;;;;;;26.85;13.90;;;;;;;9.90;73.22;150143.06;1705796;82;21564;-62